Time;durP1;ratioP1;P1;durP2;ratioP2;P2;SDS_P1;SDS_P2;PMS_P1;PMS_P2;Temp;Humidity;BMP_temperature;BMP_pressure;BME280_temperature;BME280_humidity;BME280_pressure;Samples;Min_cycle;Max_cycle;Signal;HPM_P1;HPM_P2
2023/08/13 00:01:01;;;;;;;11.82;2.60;;;;;;;22.27;65.47;101717.81;5069712;28;20068;-52
2023/08/13 00:03:27;;;;;;;11.20;2.78;;;;;;;22.13;65.94;101711.94;5068652;28;20091;-47
2023/08/13 00:05:52;;;;;;;12.02;2.30;;;;;;;22.06;65.76;101713.88;5069747;28;20431;-45
2023/08/13 00:08:18;;;;;;;13.02;2.78;;;;;;;22.11;65.58;101705.78;5069533;28;20068;-50
2023/08/13 00:10:43;;;;;;;10.80;2.63;;;;;;;22.06;65.65;101702.34;5072713;28;20036;-50
2023/08/13 00:13:10;;;;;;;10.07;2.35;;;;;;;22.00;65.97;101703.38;5072845;28;20035;-44
2023/08/13 00:15:36;;;;;;;14.25;2.83;;;;;;;21.90;66.18;101709.72;5072820;28;20028;-48
2023/08/13 00:18:01;;;;;;;10.98;2.78;;;;;;;21.94;66.35;101708.75;5073398;28;20512;-51
2023/08/13 00:20:26;;;;;;;10.43;2.33;;;;;;;21.90;66.21;101708.84;5073266;28;20055;-50
2023/08/13 00:22:52;;;;;;;11.35;2.40;;;;;;;21.82;66.83;101703.69;5072905;28;20576;-46
2023/08/13 00:25:17;;;;;;;11.18;2.67;;;;;;;21.81;66.43;101699.28;5056034;28;20120;-47
2023/08/13 00:27:42;;;;;;;12.13;2.60;;;;;;;21.75;66.97;101702.06;5073505;28;20036;-44
2023/08/13 00:30:09;;;;;;;10.10;2.67;;;;;;;21.83;66.62;101710.78;5072853;28;20135;-47
2023/08/13 00:32:35;;;;;;;8.27;2.50;;;;;;;21.78;66.51;101699.34;5072713;28;20486;-46
2023/08/13 00:35:00;;;;;;;10.13;2.58;;;;;;;21.80;66.59;101697.53;5073138;28;20037;-44
2023/08/13 00:37:25;;;;;;;8.75;2.50;;;;;;;21.65;67.07;101706.66;5073975;28;20402;-45
2023/08/13 00:39:50;;;;;;;14.13;2.70;;;;;;;21.48;67.74;101706.09;5073975;28;20446;-45
2023/08/13 00:42:16;;;;;;;12.85;2.58;;;;;;;21.60;67.45;101699.69;5073617;28;20105;-44
2023/08/13 00:44:41;;;;;;;10.15;2.60;;;;;;;21.62;67.16;101706.75;5073398;28;20032;-45
2023/08/13 00:47:08;;;;;;;11.07;2.90;;;;;;;21.68;67.03;101698.66;5073495;28;20032;-51
2023/08/13 00:49:33;;;;;;;12.52;2.50;;;;;;;21.64;67.16;101696.09;5061517;28;20098;-50
2023/08/13 00:51:59;;;;;;;8.43;2.50;;;;;;;21.58;67.48;101698.88;5060305;28;20032;-45
2023/08/13 00:54:24;;;;;;;8.55;2.00;;;;;;;21.40;68.32;101697.44;5061287;28;20032;-44
2023/08/13 00:56:51;;;;;;;10.27;2.45;;;;;;;21.57;67.79;101699.78;5072621;28;20036;-48
2023/08/13 00:59:18;;;;;;;8.10;2.40;;;;;;;21.51;67.93;101700.75;5070890;28;20028;-53
2023/08/13 01:01:43;;;;;;;16.20;2.63;;;;;;;21.46;68.25;101699.97;5073224;28;20652;-45
2023/08/13 01:04:08;;;;;;;8.50;2.55;;;;;;;21.55;68.07;101701.56;5072770;28;20081;-44
2023/08/13 01:06:54;;;;;;;6.80;2.20;;;;;;;21.55;67.86;101698.91;5072643;28;20028;-50
2023/08/13 01:09:37;;;;;;;10.68;2.53;;;;;;;21.43;68.84;101702.66;5072062;28;20098;-47
2023/08/13 01:12:08;;;;;;;10.77;2.55;;;;;;;21.43;68.65;101702.66;5073158;28;20041;-45
2023/08/13 01:14:48;;;;;;;12.68;2.70;;;;;;;21.43;69.01;101697.38;5071657;28;20169;-51
2023/08/13 01:17:17;;;;;;;11.30;2.45;;;;;;;21.59;68.28;101698.81;5063514;28;20053;-49
2023/08/13 01:19:42;;;;;;;9.27;2.58;;;;;;;21.46;68.85;101702.63;5064801;28;20123;-54
2023/08/13 01:22:08;;;;;;;8.48;2.33;;;;;;;21.57;68.41;101700.66;5072356;28;20108;-45
2023/08/13 01:24:33;;;;;;;9.75;2.65;;;;;;;21.54;68.72;101707.78;5071390;28;20529;-47
2023/08/13 01:27:32;;;;;;;10.02;2.60;;;;;;;21.42;69.18;101701.78;5072611;28;20032;-50
2023/08/13 01:30:14;;;;;;;9.90;2.42;;;;;;;21.65;67.88;101708.47;5057965;28;20123;-50
2023/08/13 01:32:48;;;;;;;8.35;2.47;;;;;;;21.54;68.13;101699.81;5072437;28;20032;-45
2023/08/13 01:35:14;;;;;;;;;;;;;;;21.52;68.35;101698.97;5072196;28;20119;-43
2023/08/13 01:37:41;;;;;;;9.00;2.40;;;;;;;21.60;67.59;101710.31;5072978;28;20367;-45
2023/08/13 01:40:07;;;;;;;11.45;2.90;;;;;;;21.30;69.04;101701.13;5079853;28;20067;-47
2023/08/13 01:42:33;;;;;;;8.90;2.55;;;;;;;21.20;69.29;101702.22;5082341;28;20033;-43
2023/08/13 01:44:58;;;;;;;8.65;2.65;;;;;;;21.21;69.48;101703.97;5076987;28;20032;-45
2023/08/13 01:47:23;;;;;;;8.80;2.60;;;;;;;20.98;70.87;101699.03;5071467;28;20094;-51
2023/08/13 01:49:49;;;;;;;11.93;3.00;;;;;;;21.21;70.16;101703.97;5071411;28;20123;-44
2023/08/13 01:52:14;;;;;;;10.05;2.70;;;;;;;20.99;70.97;101698.09;5071417;28;20052;-44
2023/08/13 01:54:39;;;;;;;9.43;2.50;;;;;;;20.89;71.42;101701.81;5071279;28;20036;-47
2023/08/13 01:57:05;;;;;;;10.80;2.30;;;;;;;21.27;69.81;101698.56;5071921;28;20125;-44
2023/08/13 01:59:30;;;;;;;9.07;2.90;;;;;;;21.24;70.06;101703.91;5070832;28;20119;-48
2023/08/13 02:01:55;;;;;;;7.50;2.47;;;;;;;21.35;70.00;101700.16;5072113;28;20037;-45
2023/08/13 02:04:21;;;;;;;9.85;2.67;;;;;;;21.29;70.21;101699.38;5071149;28;20672;-44
2023/08/13 02:06:46;;;;;;;8.32;2.70;;;;;;;21.33;69.81;101685.19;5071336;28;20064;-51
2023/08/13 02:09:11;;;;;;;9.65;2.80;;;;;;;21.33;70.08;101693.13;5071341;28;20448;-45
2023/08/13 02:11:37;;;;;;;10.05;2.42;;;;;;;21.21;70.44;101686.28;5070315;28;20095;-48
2023/08/13 02:14:02;;;;;;;9.90;2.50;;;;;;;21.12;71.06;101686.38;5069253;28;20127;-48
2023/08/13 02:16:27;;;;;;;10.57;2.22;;;;;;;21.25;71.09;101687.09;5070599;28;20415;-45
2023/08/13 02:18:53;;;;;;;11.13;2.42;;;;;;;21.39;70.66;101688.59;5071086;28;20402;-52
2023/08/13 02:21:19;;;;;;;10.68;2.78;;;;;;;21.49;70.16;101686.63;5070170;28;20056;-44
2023/08/13 02:23:45;;;;;;;8.35;2.25;;;;;;;21.59;70.28;101685.53;5070392;28;20491;-46
2023/08/13 02:26:12;;;;;;;10.82;2.47;;;;;;;21.56;70.15;101688.28;5071048;28;20039;-44
2023/08/13 02:28:37;;;;;;;11.60;2.55;;;;;;;21.68;69.45;101690.69;5069967;28;20040;-52
2023/08/13 02:31:02;;;;;;;8.77;2.40;;;;;;;21.67;69.44;101690.72;5069993;28;20659;-45
2023/08/13 02:33:28;;;;;;;11.30;2.50;;;;;;;21.57;69.72;101684.72;5069460;28;20055;-46
2023/08/13 02:35:53;;;;;;;9.10;2.35;;;;;;;21.69;69.38;101681.84;5070079;28;20522;-45
2023/08/13 02:38:18;;;;;;;10.90;2.38;;;;;;;21.73;69.70;101685.28;5070283;28;20134;-45
2023/08/13 02:40:44;;;;;;;9.32;2.08;;;;;;;21.73;69.62;101686.16;5070173;28;20067;-50
2023/08/13 02:43:09;;;;;;;10.13;2.30;;;;;;;21.59;70.00;101685.53;5068894;28;20032;-47
2023/08/13 02:45:34;;;;;;;9.80;2.33;;;;;;;21.63;70.36;101684.59;5070193;28;20115;-46
2023/08/13 02:48:00;;;;;;;8.05;2.17;;;;;;;21.79;69.44;101683.38;5070499;28;20111;-47
2023/08/13 02:50:25;;;;;;;10.65;2.45;;;;;;;21.85;69.31;101685.03;5069862;28;20044;-44
2023/08/13 02:52:50;;;;;;;8.15;2.10;;;;;;;21.93;68.83;101683.13;5070228;28;20033;-46
2023/08/13 02:55:16;;;;;;;9.82;2.28;;;;;;;21.89;68.81;101683.22;5069140;28;20051;-44
2023/08/13 02:57:41;;;;;;;10.18;2.22;;;;;;;21.91;68.69;101676.06;5070142;28;20406;-50
2023/08/13 03:00:08;;;;;;;8.98;2.10;;;;;;;21.61;69.66;101674.91;5069792;28;20059;-48
2023/08/13 03:02:33;;;;;;;11.25;2.45;;;;;;;21.38;70.61;101678.88;5069780;28;21444;-48
2023/08/13 03:04:58;;;;;;;7.00;2.00;;;;;;;21.66;69.16;101684.53;5069592;28;20033;-46
2023/08/13 03:07:24;;;;;;;8.85;2.50;;;;;;;21.67;68.95;101680.97;5061408;28;20101;-44
2023/08/13 03:09:49;;;;;;;5.90;1.90;;;;;;;21.68;69.08;101681.84;5069662;28;20521;-45
2023/08/13 03:12:14;;;;;;;9.65;2.20;;;;;;;21.50;69.77;101674.25;5069952;28;20715;-43
2023/08/13 03:14:41;;;;;;;8.23;2.25;;;;;;;21.51;69.80;101678.66;5069268;28;20036;-48
2023/08/13 03:17:06;;;;;;;6.97;2.22;;;;;;;21.42;70.07;101677.91;5062865;28;20045;-44
2023/08/13 03:19:32;;;;;;;10.23;2.13;;;;;;;21.56;69.61;101682.09;5060428;28;20033;-48
2023/08/13 03:21:57;;;;;;;7.43;2.03;;;;;;;21.49;69.52;101683.97;5069776;28;20070;-45
2023/08/13 03:24:22;;;;;;;7.93;2.35;;;;;;;21.20;70.45;101675.69;5069385;28;20036;-47
2023/08/13 03:26:48;;;;;;;8.13;2.20;;;;;;;21.43;69.90;101679.66;5070426;28;20059;-44
2023/08/13 03:29:13;;;;;;;9.80;2.35;;;;;;;21.47;69.80;101677.81;5070417;28;20117;-45
2023/08/13 03:31:38;;;;;;;8.18;2.05;;;;;;;21.41;70.36;101676.16;5069809;28;20111;-46
2023/08/13 03:34:04;;;;;;;7.88;1.85;;;;;;;21.50;69.67;101664.50;5069706;28;20085;-43
2023/08/13 03:36:29;;;;;;;8.93;2.10;;;;;;;21.49;69.44;101673.38;5069602;28;20033;-45
2023/08/13 03:38:54;;;;;;;7.80;1.85;;;;;;;21.18;70.75;101664.22;5069918;28;20029;-49
2023/08/13 03:41:20;;;;;;;7.65;1.90;;;;;;;21.33;70.33;101666.63;5069296;28;20040;-45
2023/08/13 03:43:45;;;;;;;9.48;2.40;;;;;;;21.41;69.51;101672.63;5068288;28;20037;-48
2023/08/13 03:46:10;;;;;;;7.50;2.10;;;;;;;21.42;69.66;101662.00;5071578;28;20556;-45
2023/08/13 03:48:36;;;;;;;7.75;2.17;;;;;;;21.42;69.24;101669.06;5071464;28;20047;-43
2023/08/13 03:51:04;;;;;;;8.82;2.00;;;;;;;21.38;69.50;101670.06;5070065;28;20046;-51
2023/08/13 03:53:29;;;;;;;7.22;1.95;;;;;;;21.28;69.70;101672.00;5068749;28;20040;-48
2023/08/13 03:55:55;;;;;;;6.97;1.90;;;;;;;21.16;70.60;101674.88;5069894;28;20029;-45
2023/08/13 03:58:20;;;;;;;5.93;1.90;;;;;;;21.18;70.49;101675.72;5068961;28;20395;-47
2023/08/13 04:00:45;;;;;;;9.00;2.20;;;;;;;21.15;70.50;101686.38;5069104;28;20041;-45
2023/08/13 04:03:11;;;;;;;7.72;2.00;;;;;;;21.08;70.85;101678.53;5052979;28;20559;-41
2023/08/13 04:05:36;;;;;;;10.05;2.17;;;;;;;21.05;71.01;101688.25;5060223;28;20056;-48
2023/08/13 04:08:02;;;;;;;7.60;2.20;;;;;;;20.92;72.06;101691.16;5054766;28;20163;-43
2023/08/13 04:10:28;;;;;;;7.82;2.30;;;;;;;21.06;71.19;101684.72;5068114;28;20600;-44
2023/08/13 04:12:55;;;;;;;9.23;2.20;;;;;;;21.07;71.28;101701.50;5069813;28;20143;-44
2023/08/13 04:15:21;;;;;;;7.63;2.15;;;;;;;21.15;71.07;101690.78;5069808;28;20040;-46
2023/08/13 04:17:46;;;;;;;8.23;2.17;;;;;;;21.17;71.02;101696.94;5067395;28;20044;-47
2023/08/13 04:20:12;;;;;;;8.32;2.20;;;;;;;20.95;71.71;101691.09;5051715;28;20042;-48
2023/08/13 04:22:37;;;;;;;8.02;2.10;;;;;;;21.11;71.28;101692.59;5071669;28;20025;-45
2023/08/13 04:25:03;;;;;;;7.75;2.03;;;;;;;21.14;71.40;101689.91;5073155;28;20486;-47
2023/08/13 04:27:28;;;;;;;7.53;2.00;;;;;;;21.10;71.51;101696.16;5074539;28;20036;-44
2023/08/13 04:29:54;;;;;;;8.88;2.25;;;;;;;21.13;71.57;101698.75;5075600;28;20049;-47
2023/08/13 04:32:19;;;;;;;9.15;2.40;;;;;;;21.09;71.82;101709.44;5070205;28;20032;-49
2023/08/13 04:34:44;;;;;;;9.13;2.17;;;;;;;21.08;72.32;101708.56;5069179;28;20041;-44
2023/08/13 04:37:10;;;;;;;8.70;2.28;;;;;;;21.16;71.60;101708.47;5069766;28;20032;-44
2023/08/13 04:39:35;;;;;;;8.07;2.22;;;;;;;21.15;72.18;101706.69;5069236;28;20033;-48
2023/08/13 04:42:01;;;;;;;8.07;2.22;;;;;;;21.31;71.79;101706.41;5069131;28;20138;-44
2023/08/13 04:44:26;;;;;;;8.23;2.40;;;;;;;21.24;71.17;101712.72;5068133;28;20040;-47
2023/08/13 04:46:52;;;;;;;10.40;2.40;;;;;;;21.42;70.81;101706.22;5069116;28;20372;-50
2023/08/13 04:49:17;;;;;;;9.20;2.10;;;;;;;21.38;71.26;101715.16;5068490;28;20388;-44
2023/08/13 04:51:43;;;;;;;8.65;1.92;;;;;;;21.38;70.97;101712.50;5069154;28;20064;-45
2023/08/13 04:54:08;;;;;;;6.60;1.88;;;;;;;21.58;70.50;101714.78;5070153;28;20037;-52
2023/08/13 04:56:33;;;;;;;9.82;2.30;;;;;;;21.29;71.06;101715.28;5073017;28;20044;-46
2023/08/13 04:58:58;;;;;;;9.52;2.10;;;;;;;21.54;70.72;101713.94;5073731;28;20038;-47
2023/08/13 05:01:24;;;;;;;9.80;2.42;;;;;;;21.66;70.17;101705.75;5073642;28;20043;-45
2023/08/13 05:03:49;;;;;;;8.10;1.95;;;;;;;21.33;70.72;101707.28;5073815;28;20123;-46
2023/08/13 05:06:14;;;;;;;9.60;2.10;;;;;;;21.54;70.33;101703.34;5073363;28;20568;-48
2023/08/13 05:08:40;;;;;;;7.13;2.03;;;;;;;21.61;69.96;101715.59;5073854;28;20055;-43
2023/08/13 05:11:06;;;;;;;9.60;2.20;;;;;;;21.32;70.86;101708.19;5073790;28;20028;-44
2023/08/13 05:13:31;;;;;;;6.00;2.10;;;;;;;21.30;70.55;101704.66;5071680;28;20123;-47
2023/08/13 05:15:56;;;;;;;13.90;2.35;;;;;;;21.34;71.06;101703.72;5073506;28;20050;-42
2023/08/13 05:18:22;;;;;;;7.75;1.90;;;;;;;21.36;70.92;101699.25;5072301;28;20035;-46
2023/08/13 05:20:49;;;;;;;7.70;1.60;;;;;;;21.45;70.82;101700.88;5070173;28;20106;-52
2023/08/13 05:23:14;;;;;;;7.57;2.00;;;;;;;21.39;70.90;101706.28;5071344;28;20029;-46
2023/08/13 05:25:39;;;;;;;7.18;2.10;;;;;;;21.51;70.84;101695.47;5072009;28;20437;-50
2023/08/13 05:28:06;;;;;;;5.38;1.88;;;;;;;21.60;70.81;101699.69;5071809;28;20045;-45
2023/08/13 05:30:33;;;;;;;7.30;1.67;;;;;;;21.83;69.66;101698.34;5071382;28;20036;-50
2023/08/13 05:32:58;;;;;;;8.90;1.90;;;;;;;21.76;69.40;101706.47;5071805;28;20029;-48
2023/08/13 05:35:23;;;;;;;7.60;1.90;;;;;;;21.73;69.36;101707.41;5071181;28;20739;-49
2023/08/13 05:37:49;;;;;;;7.68;2.00;;;;;;;21.76;69.76;101699.41;5071664;28;20678;-47
2023/08/13 05:40:14;;;;;;;8.23;1.90;;;;;;;21.66;69.69;101703.09;5071445;28;20047;-49
2023/08/13 05:42:40;;;;;;;13.38;2.13;;;;;;;22.15;69.66;101702.16;5071839;28;20538;-45
2023/08/13 05:45:05;;;;;;;7.53;1.88;;;;;;;22.30;68.36;101701.84;5071411;28;20037;-46
2023/08/13 05:47:31;;;;;;;9.77;2.05;;;;;;;22.47;67.72;101706.75;5071316;28;20518;-46
2023/08/13 05:49:56;;;;;;;9.75;2.05;;;;;;;22.59;66.29;101706.50;5071414;28;20413;-45
2023/08/13 05:52:22;;;;;;;8.65;2.13;;;;;;;22.75;66.25;101704.41;5071274;28;20035;-43
2023/08/13 05:54:48;;;;;;;6.57;2.10;;;;;;;22.65;66.49;101707.22;5070777;28;20635;-44
2023/08/13 05:57:13;;;;;;;10.23;2.30;;;;;;;22.86;65.97;101710.31;5071043;28;20082;-49
2023/08/13 05:59:39;;;;;;;10.63;2.08;;;;;;;23.04;64.77;101708.09;5071227;28;20103;-49
2023/08/13 06:02:04;;;;;;;8.95;2.13;;;;;;;23.33;65.22;101712.66;5071672;28;20036;-46
2023/08/13 06:04:34;;;;;;;10.40;2.22;;;;;;;23.92;63.65;101712.84;5069021;28;20046;-47
2023/08/13 06:07:00;;;;;;;13.88;2.03;;;;;;;24.48;59.90;101705.00;5069278;28;20098;-50
2023/08/13 06:09:25;;;;;;;8.98;2.50;;;;;;;24.13;60.83;101700.69;5060543;28;20044;-50
2023/08/13 06:11:51;;;;;;;9.18;2.30;;;;;;;23.87;61.55;101704.13;5056154;28;20033;-45
2023/08/13 06:14:16;;;;;;;6.95;2.13;;;;;;;23.98;61.65;101707.34;5070052;28;20050;-45
2023/08/13 06:16:41;;;;;;;9.45;2.30;;;;;;;23.93;61.65;101701.28;5071059;28;20094;-44
2023/08/13 06:19:06;;;;;;;9.32;2.05;;;;;;;23.73;61.91;101708.94;5070929;28;20036;-44
2023/08/13 06:21:32;;;;;;;8.05;2.25;;;;;;;23.28;63.79;101708.38;5070642;28;20047;-51
2023/08/13 06:23:57;;;;;;;9.05;2.10;;;;;;;23.46;63.22;101713.22;5070391;28;20044;-44
2023/08/13 06:26:23;;;;;;;7.97;2.10;;;;;;;24.26;60.16;101704.78;5070463;28;20464;-50
2023/08/13 06:28:48;;;;;;;8.20;2.22;;;;;;;25.39;58.81;101702.00;5070924;28;20503;-45
2023/08/13 06:31:13;;;;;;;9.52;2.40;;;;;;;26.12;54.56;101699.34;5070375;28;20047;-50
2023/08/13 06:33:39;;;;;;;10.57;2.38;;;;;;;27.08;52.03;101700.91;5070176;28;20070;-47
2023/08/13 06:36:05;;;;;;;10.85;2.10;;;;;;;27.75;50.40;101710.44;5070831;28;20081;-50
2023/08/13 06:38:32;;;;;;;11.75;2.40;;;;;;;28.14;49.14;101698.88;5070521;28;20032;-47
2023/08/13 06:41:05;;;;;;;7.25;2.17;;;;;;;27.48;49.65;101708.09;5070660;28;20032;-47
2023/08/13 06:43:32;;;;;;;12.27;2.60;;;;;;;26.79;51.83;101704.72;5070143;28;20519;-50
2023/08/13 06:45:58;;;;;;;11.88;2.42;;;;;;;26.18;53.83;101707.13;5070662;28;20119;-50
2023/08/13 06:48:23;;;;;;;13.93;2.60;;;;;;;25.65;55.21;101711.78;5070055;28;20032;-51
2023/08/13 06:50:56;;;;;;;11.82;2.50;;;;;;;25.71;55.64;101716.91;5070355;28;20209;-45
2023/08/13 06:53:22;;;;;;;11.60;2.72;;;;;;;25.57;55.90;101709.38;5069640;28;20033;-52
2023/08/13 06:55:48;;;;;;;11.70;2.80;;;;;;;25.26;57.14;101711.34;5070496;28;20045;-49
2023/08/13 06:58:14;;;;;;;8.80;2.60;;;;;;;25.55;56.28;101710.34;5070685;28;20036;-44
2023/08/13 07:00:40;;;;;;;12.82;3.17;;;;;;;25.30;56.26;101713.88;5070236;28;20117;-44
2023/08/13 07:03:07;;;;;;;9.02;2.70;;;;;;;25.08;57.89;101702.16;5069896;28;20713;-44
2023/08/13 07:05:32;;;;;;;11.20;2.80;;;;;;;24.82;59.16;101707.47;5069699;28;20518;-47
2023/08/13 07:07:57;;;;;;;7.95;2.33;;;;;;;25.66;55.92;101703.72;5070119;28;20032;-44
2023/08/13 07:10:23;;;;;;;8.98;2.30;;;;;;;26.64;53.35;101708.91;5069994;28;20044;-46
2023/08/13 07:12:49;;;;;;;8.98;2.47;;;;;;;27.00;50.71;101722.63;5070891;28;20036;-50
2023/08/13 07:15:14;;;;;;;12.77;2.70;;;;;;;26.73;51.56;101716.56;5071778;28;20032;-46
2023/08/13 07:17:39;;;;;;;10.40;2.70;;;;;;;26.37;52.98;101710.88;5070501;28;20483;-45
2023/08/13 07:20:09;;;;;;;7.90;2.65;;;;;;;26.91;51.78;101715.84;5069779;28;20402;-49
2023/08/13 07:22:35;;;;;;;11.18;2.50;;;;;;;26.52;51.58;101710.28;5069363;28;20029;-50
2023/08/13 07:25:00;;;;;;;6.90;2.28;;;;;;;27.10;50.71;101717.75;5069294;28;20058;-49
2023/08/13 07:27:26;;;;;;;8.30;2.60;;;;;;;26.78;51.45;101717.22;5069597;28;20530;-44
2023/08/13 07:29:51;;;;;;;9.65;2.53;;;;;;;26.50;52.07;101711.25;5069430;28;20145;-52
2023/08/13 07:32:16;;;;;;;6.28;2.22;;;;;;;26.50;51.70;101711.25;5068213;28;20032;-45
2023/08/13 07:34:42;;;;;;;7.53;2.40;;;;;;;26.17;52.98;101713.38;5069184;28;20036;-48
2023/08/13 07:37:07;;;;;;;7.50;2.53;;;;;;;25.72;54.29;101716.00;5069530;28;20029;-44
2023/08/13 07:39:32;;;;;;;10.98;2.53;;;;;;;26.10;53.62;101714.59;5068946;28;20040;-49
2023/08/13 07:41:58;;;;;;;9.75;2.30;;;;;;;25.70;54.87;101720.50;5069638;28;20094;-51
2023/08/13 07:44:24;;;;;;;10.60;2.38;;;;;;;26.18;53.13;101720.47;5068619;28;20036;-44
2023/08/13 07:46:50;;;;;;;6.22;1.75;;;;;;;26.45;52.02;101722.16;5069607;28;20033;-47
2023/08/13 07:49:16;;;;;;;8.52;2.30;;;;;;;25.81;53.17;101721.84;5069032;28;20707;-48
2023/08/13 07:51:42;;;;;;;7.05;2.10;;;;;;;25.93;53.78;101733.00;5069639;28;20411;-47
2023/08/13 07:54:07;;;;;;;5.93;2.10;;;;;;;25.58;55.47;101729.81;5068802;28;20124;-46
2023/08/13 07:56:33;;;;;;;9.65;2.30;;;;;;;25.43;55.68;101723.19;5069161;28;20038;-48
2023/08/13 07:58:58;;;;;;;7.82;2.20;;;;;;;25.29;55.81;101729.94;5069345;28;20490;-47
2023/08/13 08:01:25;;;;;;;12.27;2.35;;;;;;;25.21;55.76;101721.31;5068939;28;20036;-51
2023/08/13 08:03:51;;;;;;;8.50;2.08;;;;;;;25.31;54.18;101728.09;5068921;28;20509;-48
2023/08/13 08:06:16;;;;;;;8.23;1.98;;;;;;;25.43;56.15;101725.84;5069138;28;20044;-46
2023/08/13 08:08:42;;;;;;;7.75;1.75;;;;;;;25.57;54.49;101733.41;5069295;28;20067;-48
2023/08/13 08:11:07;;;;;;;6.32;1.80;;;;;;;25.43;56.32;101728.50;5069335;28;20064;-51
2023/08/13 08:13:33;;;;;;;8.07;1.70;;;;;;;25.40;56.43;101731.31;5068380;28;20060;-47
2023/08/13 08:15:58;;;;;;;5.05;1.65;;;;;;;25.95;54.24;101729.38;5069052;28;20056;-44
2023/08/13 08:18:24;;;;;;;5.72;1.60;;;;;;;26.19;53.31;101735.59;5068730;28;20067;-50
2023/08/13 08:20:49;;;;;;;8.05;1.85;;;;;;;26.04;54.19;101733.53;5069116;28;20044;-50
2023/08/13 08:23:15;;;;;;;5.07;1.45;;;;;;;26.37;51.41;101728.72;5068191;28;20036;-47
2023/08/13 08:25:40;;;;;;;4.22;1.50;;;;;;;26.13;52.84;101725.13;5069176;28;20078;-48
2023/08/13 08:28:05;;;;;;;6.15;1.70;;;;;;;26.36;51.35;101722.47;5068022;28;20044;-46
2023/08/13 08:30:31;;;;;;;4.63;1.40;;;;;;;26.38;51.50;101717.97;5072209;28;20039;-44
2023/08/13 08:32:56;;;;;;;4.85;1.60;;;;;;;26.16;50.76;101717.91;5072650;28;20110;-48
2023/08/13 08:35:21;;;;;;;5.53;1.45;;;;;;;25.70;52.89;101717.84;5072422;28;20059;-48
2023/08/13 08:37:47;;;;;;;7.28;1.48;;;;;;;25.55;52.61;101710.34;5073109;28;20487;-47
2023/08/13 08:40:13;;;;;;;6.43;1.50;;;;;;;25.24;53.46;101710.53;5073023;28;20556;-50
2023/08/13 08:42:40;;;;;;;6.13;1.45;;;;;;;25.68;51.63;101717.88;5052631;28;20384;-48
2023/08/13 08:45:07;;;;;;;4.40;1.45;;;;;;;25.16;53.27;101716.13;5052412;28;20104;-46
2023/08/13 08:47:33;;;;;;;5.00;1.50;;;;;;;25.12;52.84;101710.97;5052729;28;20037;-46
2023/08/13 08:50:03;;;;;;;4.32;1.58;;;;;;;25.11;52.98;101711.88;5053405;28;20063;-50
2023/08/13 08:52:32;;;;;;;6.55;1.40;;;;;;;25.42;52.61;101717.91;5053624;28;20045;-46
2023/08/13 08:54:59;;;;;;;5.32;1.65;;;;;;;25.41;52.13;101719.72;5052281;28;20418;-50
2023/08/13 08:57:24;;;;;;;6.15;1.63;;;;;;;25.25;52.57;101721.13;5052563;28;20472;-48
2023/08/13 08:59:49;;;;;;;5.88;1.67;;;;;;;25.29;52.83;101727.25;5052431;28;20037;-48
2023/08/13 09:02:15;;;;;;;7.15;1.63;;;;;;;25.50;52.26;101729.19;5052403;28;20132;-47
2023/08/13 09:04:40;;;;;;;6.13;1.45;;;;;;;24.96;53.44;101722.13;5051949;28;20032;-45
2023/08/13 09:07:06;;;;;;;9.73;1.73;;;;;;;24.93;54.34;101716.91;5052474;28;20548;-49
2023/08/13 09:09:31;;;;;;;5.43;1.50;;;;;;;25.52;54.09;101719.31;5051538;28;20041;-44
2023/08/13 09:11:58;;;;;;;4.90;1.60;;;;;;;25.94;51.91;101719.59;5052356;28;20380;-45
2023/08/13 09:14:24;;;;;;;5.75;2.00;;;;;;;26.07;52.35;101714.69;5051301;28;20037;-46
2023/08/13 09:16:56;;;;;;;4.53;1.55;;;;;;;26.10;50.38;101707.44;5052272;28;20033;-48
2023/08/13 09:19:24;;;;;;;5.13;1.77;;;;;;;26.60;49.82;101704.59;5051574;28;20052;-46
2023/08/13 09:21:59;;;;;;;4.93;1.48;;;;;;;26.58;49.45;101702.00;5052079;28;20040;-45
2023/08/13 09:24:32;;;;;;;5.85;1.70;;;;;;;25.97;51.67;101713.28;5051248;28;20037;-50
2023/08/13 09:26:58;;;;;;;7.32;1.80;;;;;;;26.15;51.91;101701.91;5052210;28;20041;-45
2023/08/13 09:29:23;;;;;;;8.63;1.77;;;;;;;25.89;50.83;101697.53;5051465;28;20467;-48
2023/08/13 09:31:49;;;;;;;5.60;1.75;;;;;;;26.02;52.78;101701.50;5052222;28;20039;-48
2023/08/13 09:34:15;;;;;;;5.28;1.48;;;;;;;26.60;51.15;101688.56;5051052;28;20108;-47
2023/08/13 09:36:40;;;;;;;5.38;1.60;;;;;;;27.16;49.64;101685.38;5052019;28;20108;-48
2023/08/13 09:39:07;;;;;;;4.68;1.50;;;;;;;27.39;50.12;101680.75;5052134;28;20430;-46
2023/08/13 09:41:33;;;;;;;7.65;1.50;;;;;;;26.77;50.58;101687.91;5050085;28;20468;-46
2023/08/13 09:44:08;;;;;;;4.07;1.35;;;;;;;27.26;48.39;101684.06;5051487;28;20059;-48
2023/08/13 09:46:34;;;;;;;3.92;1.50;;;;;;;26.53;49.88;101679.91;5051827;28;20071;-46
2023/08/13 09:49:03;;;;;;;5.18;1.42;;;;;;;27.03;48.56;101683.22;5052187;28;20037;-50
2023/08/13 09:51:33;;;;;;;6.40;1.30;;;;;;;27.44;47.62;101681.47;5051854;28;20021;-46
2023/08/13 09:54:08;;;;;;;4.68;1.30;;;;;;;27.47;46.37;101683.09;5051889;28;20033;-44
2023/08/13 09:56:36;;;;;;;5.50;1.30;;;;;;;27.53;46.15;101674.84;5051758;28;20037;-49
2023/08/13 09:59:02;;;;;;;6.38;1.30;;;;;;;27.62;46.79;101666.41;5051997;28;20082;-48
2023/08/13 10:01:28;;;;;;;3.28;1.00;;;;;;;28.07;47.15;101671.44;5051435;28;20038;-46
2023/08/13 10:03:54;;;;;;;6.30;1.33;;;;;;;27.63;46.05;101665.44;5051718;28;20059;-48
2023/08/13 10:06:21;;;;;;;4.30;1.30;;;;;;;27.60;46.70;101659.38;5051430;28;20041;-46
2023/08/13 10:08:47;;;;;;;4.20;1.23;;;;;;;27.71;47.05;101671.31;5051778;28;20407;-45
2023/08/13 10:11:13;;;;;;;3.97;0.95;;;;;;;27.97;44.24;101677.31;5052287;28;20033;-49
2023/08/13 10:13:39;;;;;;;4.57;1.25;;;;;;;27.72;45.16;101678.44;5053318;28;20032;-44
2023/08/13 10:16:05;;;;;;;2.53;0.82;;;;;;;26.90;47.30;101676.63;5055060;28;20029;-45
2023/08/13 10:18:31;;;;;;;5.55;1.15;;;;;;;27.10;47.31;101678.47;5051476;28;20037;-51
2023/08/13 10:20:57;;;;;;;5.32;1.00;;;;;;;27.15;46.89;101672.91;5051694;28;20037;-51
2023/08/13 10:23:22;;;;;;;4.25;1.20;;;;;;;27.57;45.67;101675.59;5050799;28;20033;-44
2023/08/13 10:25:52;;;;;;;3.25;1.00;;;;;;;27.69;45.55;101672.34;5052149;28;20043;-49
2023/08/13 10:28:33;;;;;;;3.70;1.05;;;;;;;27.81;44.70;101664.59;5051381;28;20072;-52
2023/08/13 10:31:23;;;;;;;2.75;1.10;;;;;;;27.83;44.93;101672.56;5051362;28;20093;-45
2023/08/13 10:34:09;;;;;;;4.18;1.10;;;;;;;27.68;44.71;101668.81;5052718;28;20690;-46
2023/08/13 10:36:44;;;;;;;3.30;1.00;;;;;;;27.23;45.62;101666.31;5063685;28;20029;-45
2023/08/13 10:39:46;;;;;;;3.20;1.17;;;;;;;26.77;48.86;101667.38;5072699;28;20036;-47
2023/08/13 10:42:26;;;;;;;3.17;1.40;;;;;;;26.72;49.02;101669.34;5030459;28;20048;-47
2023/08/13 10:44:53;;;;;;;3.00;1.10;;;;;;;27.05;49.03;101672.44;5068317;28;20041;-48
2023/08/13 10:47:18;;;;;;;2.67;1.17;;;;;;;27.08;48.25;101666.94;5071088;28;20063;-49
2023/08/13 10:49:44;;;;;;;4.35;1.20;;;;;;;27.47;47.36;101659.00;5072053;28;20040;-45
2023/08/13 10:52:13;;;;;;;3.78;1.15;;;;;;;27.45;46.51;101660.88;5070890;28;20499;-45
2023/08/13 10:54:39;;;;;;;3.75;1.10;;;;;;;27.40;46.84;101658.41;5069873;28;20035;-48
2023/08/13 10:57:04;;;;;;;2.45;0.98;;;;;;;27.54;47.03;101659.63;5071084;28;20081;-49
2023/08/13 10:59:39;;;;;;;3.55;0.95;;;;;;;27.85;45.28;101655.50;5069882;28;20111;-50
2023/08/13 11:02:11;;;;;;;4.63;1.20;;;;;;;27.57;46.67;101649.63;5070336;28;20033;-46
2023/08/13 11:04:40;;;;;;;2.97;1.08;;;;;;;27.96;44.38;101646.97;5069227;28;20032;-45
2023/08/13 11:07:06;;;;;;;3.38;1.02;;;;;;;28.18;44.18;101653.06;5070268;28;20032;-50
2023/08/13 11:09:32;;;;;;;4.45;1.08;;;;;;;28.34;44.59;101655.91;5069476;28;20114;-51
2023/08/13 11:11:57;;;;;;;5.22;1.23;;;;;;;28.25;45.98;101653.66;5069886;28;20086;-45
2023/08/13 11:14:23;;;;;;;2.95;1.00;;;;;;;27.89;45.92;101647.31;5068755;28;20040;-48
2023/08/13 11:16:48;;;;;;;3.08;1.13;;;;;;;28.38;45.95;101651.25;5069937;28;20115;-45
2023/08/13 11:19:14;;;;;;;2.78;1.13;;;;;;;28.67;45.22;101644.47;5069336;28;20037;-50
2023/08/13 11:21:39;;;;;;;4.07;1.35;;;;;;;28.59;46.41;101651.09;5069787;28;20052;-47